createdAt,value
2023-03-10T00:01:37.453Z,58.87
2023-03-10T00:04:39.035Z,58.77
2023-03-10T00:07:40.464Z,58.87
2023-03-10T00:10:41.953Z,59.54
2023-03-10T00:13:43.737Z,59.44
2023-03-10T00:16:45.172Z,59.45
2023-03-10T00:19:46.686Z,59.71
2023-03-10T00:22:48.231Z,59.01
2023-03-10T00:25:58.159Z,59.46
2023-03-10T00:28:59.631Z,60.91
2023-03-10T00:32:01.056Z,60.51
2023-03-10T00:35:03.435Z,60.46
2023-03-10T00:38:04.865Z,60.39
2023-03-10T00:41:09.086Z,60.99
2023-03-10T00:44:11.144Z,60.01
2023-03-10T00:47:13.160Z,60.97
2023-03-10T00:50:14.693Z,61.07
2023-03-10T00:53:16.649Z,60.64
2023-03-10T00:56:21.734Z,61.58
2023-03-10T00:59:23.684Z,61.02
2023-03-10T01:02:25.667Z,61.39
2023-03-10T01:05:29.136Z,60.68
2023-03-10T01:08:30.622Z,60.66
2023-03-10T01:11:32.988Z,60.41
2023-03-10T01:14:34.385Z,60.91
2023-03-10T01:17:35.850Z,60.96
2023-03-10T01:20:37.525Z,61.24
2023-03-10T01:23:43.026Z,61.28
2023-03-10T01:26:44.500Z,61.22
2023-03-10T01:29:46.810Z,61.91
2023-03-10T01:32:48.373Z,62.67
2023-03-10T01:35:49.916Z,63.94
2023-03-10T01:38:54.302Z,64.38
2023-03-10T01:41:55.797Z,62.92
2023-03-10T01:45:12.469Z,63.03
2023-03-10T01:48:16.530Z,64.78
2023-03-10T01:51:18.767Z,64.54
2023-03-10T01:54:24.508Z,64.99
2023-03-10T01:57:37.806Z,66.14
2023-03-10T02:00:40.902Z,64.84
2023-03-10T02:03:58.855Z,65.79
2023-03-10T02:07:03.552Z,64.77
2023-03-10T02:10:05.742Z,65.48
2023-03-10T02:13:07.275Z,65.65
2023-03-10T02:16:09.573Z,66.30
2023-03-10T02:19:29.811Z,65.85
2023-03-10T02:22:32.707Z,65.40
2023-03-10T02:25:40.119Z,65.32
2023-03-10T02:28:41.908Z,65.10
2023-03-10T02:31:44.735Z,64.81
2023-03-10T02:34:46.811Z,64.42
2023-03-10T02:37:50.766Z,63.81
2023-03-10T02:40:53.062Z,64.06
2023-03-10T02:44:06.041Z,63.78
2023-03-10T02:47:07.976Z,63.52
2023-03-10T02:50:11.649Z,63.51
2023-03-10T02:53:24.931Z,64.73
2023-03-10T02:56:27.494Z,66.34
2023-03-10T02:59:31.568Z,66.62
2023-03-10T03:02:33.819Z,66.69
2023-03-10T03:05:36.204Z,66.30
2023-03-10T03:08:38.330Z,67.08
2023-03-10T03:11:42.448Z,66.92
2023-03-10T03:14:44.669Z,66.49
2023-03-10T03:17:46.167Z,66.75
2023-03-10T03:20:48.800Z,67.22
2023-03-10T03:23:50.405Z,66.96
2023-03-10T03:26:53.905Z,66.46
2023-03-10T03:29:59.711Z,67.00
2023-03-10T03:33:03.480Z,65.85
2023-03-10T03:36:06.025Z,65.53
2023-03-10T03:39:07.825Z,64.99
2023-03-10T03:42:11.003Z,65.00
2023-03-10T03:45:22.085Z,66.08
2023-03-10T03:48:24.393Z,65.65
2023-03-10T03:51:26.615Z,66.73
2023-03-10T03:54:28.250Z,66.98
2023-03-10T03:57:30.422Z,67.91
2023-03-10T04:00:34.062Z,68.49
2023-03-10T04:03:39.561Z,68.95
2023-03-10T04:06:42.266Z,67.85
2023-03-10T04:09:44.982Z,67.73
2023-03-10T04:12:47.116Z,67.22
2023-03-10T04:15:48.759Z,66.85
2023-03-10T04:18:50.328Z,65.69
2023-03-10T04:21:53.176Z,65.60
2023-03-10T04:24:54.989Z,64.42
2023-03-10T04:27:57.628Z,65.21
2023-03-10T04:30:59.273Z,65.42
2023-03-10T04:34:04.921Z,65.71
2023-03-10T04:37:07.195Z,66.13
2023-03-10T04:40:13.153Z,65.92
2023-03-10T04:43:15.532Z,66.62
2023-03-10T04:46:17.606Z,67.02
2023-03-10T04:49:19.697Z,68.19
2023-03-10T04:52:23.053Z,69.24
2023-03-10T04:55:24.730Z,68.32
2023-03-10T04:58:26.339Z,68.68
2023-03-10T05:01:32.965Z,69.00
2023-03-10T05:04:37.467Z,68.38
2023-03-10T05:07:39.152Z,68.20
2023-03-10T05:10:42.270Z,70.10
2023-03-10T05:13:43.817Z,69.38
2023-03-10T05:16:48.610Z,69.49
2023-03-10T05:19:50.698Z,70.30
2023-03-10T05:22:52.683Z,71.43
2023-03-10T05:25:54.552Z,71.39
2023-03-10T05:28:57.996Z,71.99
2023-03-10T05:32:12.173Z,72.13
2023-03-10T05:35:15.364Z,72.05
2023-03-10T05:38:18.971Z,71.21
2023-03-10T05:41:20.630Z,71.46
2023-03-10T05:44:26.146Z,71.75
2023-03-10T05:47:27.818Z,72.61
2023-03-10T05:50:29.755Z,70.99
2023-03-10T05:53:33.457Z,71.67
2023-03-10T05:56:35.896Z,71.34
2023-03-10T05:59:38.327Z,71.63
2023-03-10T06:02:41.334Z,70.94
2023-03-10T06:05:42.914Z,71.21
2023-03-10T06:08:44.393Z,70.35
2023-03-10T06:11:45.839Z,70.64
2023-03-10T06:14:47.335Z,69.75
2023-03-10T06:17:48.733Z,69.08
2023-03-10T06:20:50.322Z,69.18
2023-03-10T06:23:52.329Z,68.52
2023-03-10T06:26:53.832Z,68.14
2023-03-10T06:29:55.411Z,67.97
2023-03-10T06:32:57.004Z,67.50
2023-03-10T06:35:58.933Z,67.60
2023-03-10T06:39:00.378Z,68.29
2023-03-10T06:42:01.825Z,68.21
2023-03-10T06:45:03.605Z,67.94
2023-03-10T06:48:05.228Z,69.59
2023-03-10T06:51:18.539Z,69.88
2023-03-10T06:54:20.100Z,71.23
2023-03-10T06:57:21.583Z,71.03
2023-03-10T07:00:23.175Z,70.69
2023-03-10T07:03:26.296Z,70.17
2023-03-10T07:06:28.578Z,69.34
2023-03-10T07:09:29.899Z,68.57
2023-03-10T07:12:31.773Z,71.38
2023-03-10T07:15:33.186Z,71.76
2023-03-10T07:18:34.688Z,70.44
2023-03-10T07:21:36.194Z,70.61
2023-03-10T07:24:37.628Z,72.21
2023-03-10T07:27:39.093Z,73.09
2023-03-10T07:30:41.231Z,73.56
2023-03-10T07:33:43.062Z,73.23
2023-03-10T07:36:44.491Z,74.33
2023-03-10T07:39:45.931Z,73.03
2023-03-10T07:42:47.508Z,73.08
2023-03-10T07:45:50.515Z,72.66
2023-03-10T07:48:53.742Z,72.27
2023-03-10T07:51:55.176Z,71.52
2023-03-10T07:54:56.597Z,71.45
2023-03-10T07:58:00.270Z,70.83
2023-03-10T08:01:01.801Z,70.13
2023-03-10T08:04:03.340Z,70.21
2023-03-10T08:07:04.911Z,69.76
2023-03-10T08:10:07.284Z,69.70
2023-03-10T08:13:08.625Z,69.52
2023-03-10T08:16:10.049Z,69.71
2023-03-10T08:19:11.517Z,69.12
2023-03-10T08:22:12.977Z,68.58
2023-03-10T08:25:14.410Z,68.41
2023-03-10T08:28:16.331Z,68.00
2023-03-10T08:31:19.790Z,67.91
2023-03-10T08:34:21.507Z,67.76
2023-03-10T08:37:22.978Z,67.16
2023-03-10T08:40:24.705Z,66.65
2023-03-10T08:43:26.217Z,67.19
2023-03-10T08:46:29.489Z,66.40
2023-03-10T08:49:31.318Z,66.97
2023-03-10T08:52:33.403Z,67.62
2023-03-10T08:55:34.804Z,68.05
2023-03-10T08:58:36.233Z,68.96
2023-03-10T09:01:38.158Z,69.37
2023-03-10T09:04:39.563Z,68.99
2023-03-10T09:07:41.005Z,68.64
2023-03-10T09:10:44.723Z,67.64
2023-03-10T09:13:46.927Z,68.43
2023-03-10T09:16:48.531Z,68.77
2023-03-10T09:19:50.078Z,70.07
2023-03-10T09:22:55.489Z,69.66
2023-03-10T09:25:56.895Z,70.31
2023-03-10T09:28:58.311Z,69.65
2023-03-10T09:31:59.803Z,70.24
2023-03-10T09:35:01.306Z,69.45
2023-03-10T09:38:05.415Z,70.74
2023-03-10T09:41:28.792Z,70.96
2023-03-10T09:44:43.434Z,70.00
2023-03-10T09:48:04.866Z,69.74
2023-03-10T09:51:24.038Z,68.95
2023-03-10T09:54:46.241Z,69.81
2023-03-10T09:57:53.333Z,69.02
2023-03-10T10:00:54.890Z,69.14
2023-03-10T10:04:17.732Z,69.81
2023-03-10T10:07:27.289Z,69.44
2023-03-10T10:10:30.557Z,68.99
2023-03-10T10:13:35.201Z,67.84
2023-03-10T10:16:41.099Z,68.03
2023-03-10T10:19:45.646Z,67.50
2023-03-10T10:22:47.895Z,67.92
2023-03-10T10:25:50.477Z,66.87
2023-03-10T10:29:00.158Z,67.97
2023-03-10T10:32:10.872Z,67.41
2023-03-10T10:35:15.028Z,66.88
2023-03-10T10:38:16.397Z,67.21
2023-03-10T10:41:21.132Z,67.94
2023-03-10T10:44:23.584Z,66.93
2023-03-10T10:47:50.595Z,68.02
2023-03-10T10:50:55.172Z,67.78
2023-03-10T10:53:58.440Z,67.77
2023-03-10T10:57:01.520Z,68.98
2023-03-10T11:00:32.520Z,68.61
2023-03-10T11:03:37.416Z,69.17
2023-03-10T11:06:39.247Z,69.37
2023-03-10T11:09:40.732Z,69.23
2023-03-10T11:12:58.817Z,69.72
2023-03-10T11:16:13.796Z,68.85
2023-03-10T11:19:24.659Z,69.35
2023-03-10T11:22:44.917Z,68.29
2023-03-10T11:26:21.586Z,68.58
2023-03-10T11:29:38.875Z,68.99
2023-03-10T11:33:28.656Z,68.08
2023-03-10T11:36:55.113Z,67.32
2023-03-10T11:40:38.006Z,67.61
2023-03-10T11:43:56.285Z,66.75
2023-03-10T11:46:59.972Z,67.66
2023-03-10T11:50:19.379Z,67.58
2023-03-10T11:53:50.532Z,68.14
2023-03-10T11:56:52.916Z,67.56
2023-03-10T12:00:03.192Z,69.78
2023-03-10T12:03:20.641Z,69.65
2023-03-10T12:06:31.913Z,70.00
2023-03-10T12:09:40.563Z,70.23
2023-03-10T12:12:47.539Z,69.42
2023-03-10T12:15:52.125Z,69.59
2023-03-10T12:18:54.133Z,70.32
2023-03-10T12:22:22.818Z,70.46
2023-03-10T12:25:30.379Z,69.72
2023-03-10T12:28:33.292Z,70.29
2023-03-10T12:31:37.775Z,70.03
2023-03-10T12:34:39.237Z,69.68
2023-03-10T12:37:40.687Z,68.83
2023-03-10T12:40:49.815Z,69.69
2023-03-10T12:44:16.122Z,70.05
2023-03-10T12:47:25.338Z,70.87
2023-03-10T12:50:44.781Z,71.85
2023-03-10T12:53:54.674Z,72.66
2023-03-10T12:57:17.908Z,72.69
2023-03-10T13:00:40.641Z,71.65
2023-03-10T13:03:46.246Z,72.66
2023-03-10T13:06:49.074Z,72.41
2023-03-10T13:09:51.970Z,72.56
2023-03-10T13:12:56.413Z,71.65
2023-03-10T13:16:00.898Z,71.29
2023-03-10T13:19:03.768Z,71.36
2023-03-10T13:22:05.305Z,71.34
2023-03-10T13:25:13.278Z,71.19
2023-03-10T13:28:15.006Z,71.73
2023-03-10T13:31:20.318Z,69.88
2023-03-10T13:34:23.786Z,69.41
2023-03-10T13:37:25.853Z,69.10
2023-03-10T13:40:27.386Z,69.21
2023-03-10T13:43:39.218Z,66.19
2023-03-10T13:46:47.578Z,64.32
2023-03-10T13:49:59.654Z,63.13
2023-03-10T13:53:01.162Z,62.26
2023-03-10T13:56:14.754Z,61.41
2023-03-10T13:59:29.435Z,61.22
2023-03-10T14:02:33.838Z,60.49
2023-03-10T14:05:42.491Z,60.33
2023-03-10T14:08:43.916Z,60.05
2023-03-10T14:11:47.888Z,60.11
2023-03-10T14:14:51.908Z,59.61
2023-03-10T14:18:13.438Z,61.60
2023-03-10T14:21:33.359Z,58.85
2023-03-10T14:24:34.789Z,59.97
2023-03-10T14:27:38.876Z,60.21
2023-03-10T14:30:43.906Z,59.96
2023-03-10T14:33:45.361Z,59.13
2023-03-10T14:36:46.805Z,59.54
2023-03-10T14:39:48.248Z,59.12
2023-03-10T14:42:51.144Z,58.36
2023-03-10T14:45:55.075Z,59.31
2023-03-10T14:48:56.699Z,60.35
2023-03-10T14:51:58.125Z,61.35
2023-03-10T14:54:59.550Z,58.77
2023-03-10T14:58:04.416Z,56.59
2023-03-10T15:01:06.223Z,54.06
2023-03-10T15:04:17.497Z,54.43
2023-03-10T15:07:19.027Z,55.47
2023-03-10T15:10:22.262Z,52.80
2023-03-10T15:13:24.426Z,53.89
2023-03-10T15:16:25.811Z,53.03
2023-03-10T15:19:28.254Z,52.22
2023-03-10T15:22:30.061Z,52.49
2023-03-10T15:25:31.836Z,53.40
2023-03-10T15:28:33.931Z,54.42
2023-03-10T15:31:36.113Z,54.64
2023-03-10T15:34:37.567Z,53.95
2023-03-10T15:37:39.459Z,55.27
2023-03-10T15:40:41.649Z,55.05
2023-03-10T15:43:43.089Z,54.44
2023-03-10T15:46:46.144Z,56.06
2023-03-10T15:49:47.688Z,56.00
2023-03-10T15:52:52.364Z,55.45
2023-03-10T15:55:55.331Z,54.75
2023-03-10T15:58:57.069Z,54.59
2023-03-10T16:01:58.618Z,54.25
2023-03-10T16:05:00.175Z,53.39
2023-03-10T16:08:03.099Z,53.89
2023-03-10T16:11:06.739Z,55.02
2023-03-10T16:14:08.146Z,55.33
2023-03-10T16:17:11.507Z,55.05
2023-03-10T16:20:13.935Z,54.20
2023-03-10T16:23:15.819Z,54.04
2023-03-10T16:26:20.465Z,54.32
2023-03-10T16:29:22.026Z,55.49
2023-03-10T16:32:23.499Z,56.87
2023-03-10T16:35:24.978Z,60.20
2023-03-10T16:38:28.077Z,61.91
2023-03-10T16:41:30.085Z,61.82
2023-03-10T16:44:31.938Z,61.37
2023-03-10T16:47:33.924Z,60.23
2023-03-10T16:50:35.945Z,60.23
2023-03-10T16:53:37.522Z,60.08
2023-03-10T16:56:42.284Z,59.76
2023-03-10T16:59:44.909Z,58.61
2023-03-10T17:02:46.863Z,56.03
2023-03-10T17:05:53.729Z,53.64
2023-03-10T17:08:55.952Z,53.71
2023-03-10T17:11:57.430Z,52.63
2023-03-10T17:14:58.822Z,53.18
2023-03-10T17:18:00.262Z,53.49
2023-03-10T17:21:19.387Z,53.25
2023-03-10T17:24:21.480Z,52.09
2023-03-10T17:27:23.608Z,53.00
2023-03-10T17:30:25.063Z,53.38
2023-03-10T17:33:26.478Z,53.62
2023-03-10T17:36:28.381Z,55.79
2023-03-10T17:39:30.040Z,58.20
2023-03-10T17:42:31.523Z,59.90
2023-03-10T17:45:32.945Z,61.20
2023-03-10T17:48:35.579Z,60.65
2023-03-10T17:51:39.090Z,60.25
2023-03-10T17:54:40.663Z,59.67
2023-03-10T17:57:42.187Z,58.54
2023-03-10T18:00:44.229Z,58.66
2023-03-10T18:03:48.177Z,57.79
2023-03-10T18:06:49.938Z,57.52
2023-03-10T18:09:51.642Z,59.91
2023-03-10T18:12:53.561Z,62.32
2023-03-10T18:15:55.126Z,61.69
2023-03-10T18:18:57.770Z,64.30
2023-03-10T18:21:59.839Z,62.80
2023-03-10T18:25:01.732Z,61.29
2023-03-10T18:28:03.173Z,59.32
2023-03-10T18:31:09.715Z,59.74
2023-03-10T18:34:12.864Z,59.36
2023-03-10T18:37:14.287Z,58.66
2023-03-10T18:40:16.861Z,57.77
2023-03-10T18:43:18.424Z,57.81
2023-03-10T18:46:20.521Z,56.93
2023-03-10T18:49:22.058Z,56.14
2023-03-10T18:52:23.536Z,56.71
2023-03-10T18:55:25.215Z,56.01
2023-03-10T18:58:27.024Z,55.07
2023-03-10T19:01:28.618Z,55.93
2023-03-10T19:04:30.070Z,55.46
2023-03-10T19:07:36.654Z,54.14
2023-03-10T19:10:39.430Z,54.18
2023-03-10T19:13:44.002Z,53.61
2023-03-10T19:16:47.225Z,53.78
2023-03-10T19:19:48.786Z,53.92
2023-03-10T19:22:51.180Z,53.63
2023-03-10T19:25:52.656Z,53.66
2023-03-10T19:28:54.093Z,54.63
2023-03-10T19:31:55.574Z,54.22
2023-03-10T19:34:57.308Z,54.97
2023-03-10T19:37:58.807Z,54.65
2023-03-10T19:41:01.008Z,55.85
2023-03-10T19:44:02.440Z,54.69
2023-03-10T19:47:04.132Z,55.59
2023-03-10T19:50:06.644Z,55.61
2023-03-10T19:53:07.980Z,56.53
2023-03-10T19:56:10.113Z,56.63
2023-03-10T19:59:11.707Z,60.25
2023-03-10T20:02:15.404Z,62.03
2023-03-10T20:05:20.515Z,62.77
2023-03-10T20:08:24.273Z,62.73
2023-03-10T20:11:25.824Z,62.18
2023-03-10T20:14:27.480Z,62.57
2023-03-10T20:17:28.992Z,62.02
2023-03-10T20:20:31.606Z,62.24
2023-03-10T20:23:34.048Z,60.23
2023-03-10T20:26:35.472Z,60.23
2023-03-10T20:29:37.082Z,59.38
2023-03-10T20:32:38.502Z,59.58
2023-03-10T20:35:40.041Z,59.34
2023-03-10T20:38:44.097Z,58.70
2023-03-10T20:41:45.985Z,58.38
2023-03-10T20:44:47.470Z,59.82
2023-03-10T20:47:49.834Z,58.34
2023-03-10T20:50:55.746Z,58.63
2023-03-10T20:53:57.290Z,58.38
2023-03-10T20:56:58.780Z,56.46
2023-03-10T21:00:01.059Z,55.80
2023-03-10T21:03:03.231Z,57.01
2023-03-10T21:06:04.941Z,56.54
2023-03-10T21:09:06.434Z,55.52
2023-03-10T21:12:08.346Z,56.02
2023-03-10T21:15:13.367Z,55.00
2023-03-10T21:18:14.803Z,54.98
2023-03-10T21:21:16.269Z,55.31
2023-03-10T21:24:18.083Z,54.57
2023-03-10T21:27:20.795Z,53.99
2023-03-10T21:30:23.409Z,55.23
2023-03-10T21:33:27.330Z,54.53
2023-03-10T21:36:28.849Z,55.03
2023-03-10T21:39:30.267Z,55.82
2023-03-10T21:42:31.733Z,54.37
2023-03-10T21:45:34.147Z,54.44
2023-03-10T21:48:35.681Z,54.79
2023-03-10T21:51:37.517Z,54.26
2023-03-10T21:54:39.003Z,54.39
2023-03-10T21:57:40.477Z,55.45
2023-03-10T22:00:42.630Z,54.36
2023-03-10T22:03:44.359Z,54.76
2023-03-10T22:06:45.839Z,53.10
2023-03-10T22:09:47.565Z,54.18
2023-03-10T22:12:48.990Z,55.34
2023-03-10T22:15:50.502Z,53.99
2023-03-10T22:18:52.005Z,53.43
2023-03-10T22:21:53.453Z,53.92
2023-03-10T22:24:54.859Z,56.39
2023-03-10T22:28:04.109Z,53.32
2023-03-10T22:31:07.449Z,55.12
2023-03-10T22:34:09.166Z,54.35
2023-03-10T22:37:11.028Z,56.04
2023-03-10T22:40:16.478Z,54.20
2023-03-10T22:43:17.960Z,53.85
2023-03-10T22:46:20.319Z,53.24
2023-03-10T22:49:22.168Z,52.40
2023-03-10T22:52:23.801Z,53.16
2023-03-10T22:55:25.558Z,52.08
2023-03-10T22:58:31.667Z,51.11
2023-03-10T23:01:34.248Z,51.51
2023-03-10T23:04:36.477Z,51.24
2023-03-10T23:07:38.819Z,50.91
2023-03-10T23:10:41.868Z,51.67
2023-03-10T23:13:44.074Z,51.27
2023-03-10T23:16:46.352Z,51.70
2023-03-10T23:19:51.319Z,50.68
2023-03-10T23:22:54.416Z,51.83
2023-03-10T23:25:59.070Z,51.41
2023-03-10T23:29:00.942Z,52.61
2023-03-10T23:32:02.315Z,51.07
2023-03-10T23:35:08.913Z,52.92
2023-03-10T23:38:10.308Z,50.88
2023-03-10T23:41:12.055Z,52.83
2023-03-10T23:44:13.531Z,51.52
2023-03-10T23:47:15.047Z,51.89
2023-03-10T23:50:20.552Z,53.15
2023-03-10T23:53:22.020Z,52.02
2023-03-10T23:56:23.729Z,51.18
2023-03-10T23:59:25.258Z,52.94
